Time;durP1;ratioP1;P1;durP2;ratioP2;P2;SDS_P1;SDS_P2;PMS_P1;PMS_P2;Temp;Humidity;BMP_temperature;BMP_pressure;BME280_temperature;BME280_humidity;BME280_pressure;Samples;Min_cycle;Max_cycle;Signal;HPM_P1;HPM_P2
2024/01/26 00:00:29;;;;;;;41.65;8.27;;;;;;;;;;5067348;28;20076;-71
2024/01/26 00:02:58;;;;;;;42.55;7.00;;;;;;;;;;5053291;28;20041;-71
2024/01/26 00:05:24;;;;;;;37.55;6.95;;;;;;;;;;5049584;28;20049;-72
2024/01/26 00:07:50;;;;;;;30.08;7.80;;;;;;;;;;5066270;28;20126;-73
2024/01/26 00:10:17;;;;;;;43.67;9.27;;;;;;;;;;5055558;28;20083;-71
2024/01/26 00:12:44;;;;;;;35.70;8.50;;;;;;;;;;5070756;28;20467;-72
2024/01/26 00:15:10;;;;;;;39.60;7.32;;;;;;;;;;5070945;28;20513;-71
2024/01/26 00:17:37;;;;;;;41.45;9.65;;;;;;;;;;5051853;28;20044;-72
2024/01/26 00:20:05;;;;;;;37.15;10.52;;;;;;;;;;5070625;28;20060;-71
2024/01/26 00:22:31;;;;;;;40.00;8.38;;;;;;;;;;5070512;28;20045;-71
2024/01/26 00:24:58;;;;;;;29.55;7.75;;;;;;;;;;5070102;28;20123;-71
2024/01/26 00:27:24;;;;;;;38.88;9.23;;;;;;;;;;5070589;28;20569;-72
2024/01/26 00:29:51;;;;;;;49.72;11.55;;;;;;;;;;5057935;28;20041;-72
2024/01/26 00:32:18;;;;;;;46.90;11.32;;;;;;;;;;5048258;28;20041;-71
2024/01/26 00:34:44;;;;;;;55.17;9.77;;;;;;;;;;5052533;28;20053;-71
2024/01/26 00:37:10;;;;;;;38.83;9.15;;;;;;;;;;5070480;28;20055;-71
2024/01/26 00:39:37;;;;;;;43.67;9.93;;;;;;;;;;5070476;28;20138;-73
2024/01/26 00:42:04;;;;;;;55.15;10.63;;;;;;;;;;5070560;28;20068;-72
2024/01/26 00:44:30;;;;;;;46.97;9.38;;;;;;;;;;5052708;28;20045;-71
2024/01/26 00:46:56;;;;;;;44.00;10.20;;;;;;;;;;5068475;28;20144;-72
2024/01/26 00:49:23;;;;;;;45.50;8.88;;;;;;;;;;5070128;28;20102;-72
2024/01/26 00:52:03;;;;;;;32.08;8.75;;;;;;;;;;5069766;28;20055;-73
2024/01/26 00:54:30;;;;;;;41.15;10.88;;;;;;;;;;5055520;28;20072;-72
2024/01/26 00:56:56;;;;;;;42.67;11.25;;;;;;;;;;5067884;28;20479;-72
2024/01/26 00:59:23;;;;;;;56.55;12.02;;;;;;;;;;5052131;28;20053;-72
2024/01/26 01:01:49;;;;;;;33.40;8.98;;;;;;;;;;5069558;28;20489;-72
2024/01/26 01:04:16;;;;;;;39.65;8.93;;;;;;;;;;5049310;28;20049;-73
2024/01/26 01:06:42;;;;;;;38.40;11.50;;;;;;;;;;5069733;28;20057;-72
2024/01/26 01:09:09;;;;;;;39.60;9.38;;;;;;;;;;5069518;28;20049;-72
2024/01/26 01:11:36;;;;;;;31.48;10.13;;;;;;;;;;5069772;28;20404;-73
2024/01/26 01:14:04;;;;;;;47.15;12.18;;;;;;;;;;5068883;28;20052;-72
2024/01/26 01:16:32;;;;;;;44.47;12.73;;;;;;;;;;5068168;28;20080;-73
2024/01/26 01:18:58;;;;;;;36.75;9.15;;;;;;;;;;5069491;28;20097;-72
2024/01/26 01:21:25;;;;;;;44.70;10.50;;;;;;;;;;5069699;28;20056;-71
2024/01/26 01:23:51;;;;;;;33.65;9.35;;;;;;;;;;5069647;28;20053;-72
2024/01/26 01:26:18;;;;;;;36.13;9.93;;;;;;;;;;5069128;28;20048;-72
2024/01/26 01:28:44;;;;;;;34.78;8.75;;;;;;;;;;5069302;28;20051;-73
2024/01/26 01:31:11;;;;;;;30.88;7.65;;;;;;;;;;5069364;28;20098;-72
2024/01/26 01:33:37;;;;;;;43.65;8.52;;;;;;;;;;5068908;28;20129;-72
2024/01/26 01:36:05;;;;;;;40.47;12.10;;;;;;;;;;5069424;28;20048;-71
2024/01/26 01:38:31;;;;;;;38.92;10.15;;;;;;;;;;5036124;28;20048;-71
2024/01/26 01:40:58;;;;;;;50.63;12.63;;;;;;;;;;5069235;28;20052;-72
2024/01/26 01:43:24;;;;;;;47.95;11.10;;;;;;;;;;5069407;28;20047;-72
2024/01/26 01:45:51;;;;;;;38.35;9.63;;;;;;;;;;5068795;28;20140;-72
2024/01/26 01:48:18;;;;;;;40.85;10.52;;;;;;;;;;5056961;28;20492;-72
2024/01/26 01:50:44;;;;;;;38.83;9.85;;;;;;;;;;5068833;28;20055;-71
2024/01/26 01:53:11;;;;;;;38.15;8.95;;;;;;;;;;5068322;28;20045;-73
2024/01/26 01:55:38;;;;;;;47.22;11.48;;;;;;;;;;5068557;28;20094;-72
2024/01/26 01:58:05;;;;;;;33.50;9.77;;;;;;;;;;5050919;28;20498;-72
2024/01/26 02:00:32;;;;;;;38.55;9.00;;;;;;;;;;5068542;28;20553;-71
2024/01/26 02:02:59;;;;;;;35.45;10.02;;;;;;;;;;5068789;28;20596;-72
2024/01/26 02:05:25;;;;;;;45.90;10.65;;;;;;;;;;5068408;28;20131;-72
2024/01/26 02:07:52;;;;;;;42.13;8.85;;;;;;;;;;5068563;28;20131;-72
2024/01/26 02:10:19;;;;;;;37.42;8.82;;;;;;;;;;5068616;28;20630;-72
2024/01/26 02:12:45;;;;;;;38.08;9.98;;;;;;;;;;5068790;28;20550;-73
2024/01/26 02:15:12;;;;;;;29.60;9.23;;;;;;;;;;5050409;28;20052;-73
2024/01/26 02:17:39;;;;;;;31.05;9.02;;;;;;;;;;5049644;28;20076;-72
2024/01/26 02:20:07;;;;;;;52.90;11.48;;;;;;;;;;5068171;28;20056;-72
2024/01/26 02:22:33;;;;;;;33.80;8.43;;;;;;;;;;5068156;28;20492;-72
2024/01/26 02:25:00;;;;;;;31.55;8.95;;;;;;;;;;5067090;28;20155;-72
2024/01/26 02:27:26;;;;;;;37.95;9.25;;;;;;;;;;5068398;28;20059;-72
2024/01/26 02:29:52;;;;;;;29.70;8.80;;;;;;;;;;5068213;28;20055;-72
2024/01/26 02:32:19;;;;;;;37.40;11.23;;;;;;;;;;5068374;28;20068;-71
2024/01/26 02:34:45;;;;;;;29.25;8.73;;;;;;;;;;5068103;28;20098;-72
2024/01/26 02:37:12;;;;;;;36.60;8.48;;;;;;;;;;5068272;28;20071;-72
2024/01/26 02:39:38;;;;;;;27.10;10.27;;;;;;;;;;5067948;28;20481;-71
2024/01/26 02:42:05;;;;;;;54.65;10.18;;;;;;;;;;5067975;28;20106;-72
2024/01/26 02:44:32;;;;;;;42.30;9.43;;;;;;;;;;5068099;28;20049;-73
2024/01/26 02:46:59;;;;;;;33.08;10.60;;;;;;;;;;5054764;28;20053;-72
2024/01/26 02:49:26;;;;;;;39.20;9.40;;;;;;;;;;5064796;28;20048;-72
2024/01/26 02:51:53;;;;;;;42.10;9.63;;;;;;;;;;5067928;28;20052;-72
2024/01/26 02:54:19;;;;;;;29.85;9.68;;;;;;;;;;5067987;28;20037;-72
2024/01/26 02:56:49;;;;;;;45.50;10.02;;;;;;;;;;5068482;28;20044;-73
2024/01/26 02:59:15;;;;;;;33.58;11.63;;;;;;;;;;5053137;28;20052;-72
2024/01/26 03:01:42;;;;;;;47.45;11.68;;;;;;;;;;5057672;28;20422;-71
2024/01/26 03:04:08;;;;;;;52.50;11.95;;;;;;;;;;5044248;28;20106;-72
2024/01/26 03:06:35;;;;;;;42.13;10.07;;;;;;;;;;5067522;28;20056;-72
2024/01/26 03:09:03;;;;;;;34.55;10.98;;;;;;;;;;5049693;28;20473;-72
2024/01/26 03:11:37;;;;;;;39.72;10.15;;;;;;;;;;5067508;28;20061;-72
2024/01/26 03:14:05;;;;;;;33.47;10.55;;;;;;;;;;5067456;28;20059;-72
2024/01/26 03:16:35;;;;;;;38.28;10.45;;;;;;;;;;5067569;28;20056;-71
2024/01/26 03:19:01;;;;;;;39.15;11.13;;;;;;;;;;5065434;28;20040;-72
2024/01/26 03:21:28;;;;;;;35.20;10.57;;;;;;;;;;5049388;28;20048;-71
2024/01/26 03:23:55;;;;;;;40.85;9.23;;;;;;;;;;5059553;28;20139;-72
2024/01/26 03:26:21;;;;;;;36.83;9.10;;;;;;;;;;5059029;28;20053;-72
2024/01/26 03:28:48;;;;;;;30.25;10.23;;;;;;;;;;5067618;28;20469;-72
2024/01/26 03:31:14;;;;;;;25.75;9.63;;;;;;;;;;5066435;28;20057;-72
2024/01/26 03:33:41;;;;;;;24.17;9.82;;;;;;;;;;5067200;28;20052;-71
2024/01/26 03:36:08;;;;;;;41.20;8.40;;;;;;;;;;5047416;28;20049;-72
2024/01/26 03:38:38;;;;;;;26.23;8.00;;;;;;;;;;5071501;28;20072;-73
2024/01/26 03:41:05;;;;;;;47.80;10.27;;;;;;;;;;5071418;28;20059;-71
2024/01/26 03:43:31;;;;;;;28.83;12.65;;;;;;;;;;5071596;28;20484;-73
2024/01/26 03:45:58;;;;;;;37.45;10.13;;;;;;;;;;5071484;28;20052;-72
2024/01/26 03:48:24;;;;;;;32.53;10.30;;;;;;;;;;5063418;28;20155;-71
2024/01/26 03:50:51;;;;;;;25.23;9.98;;;;;;;;;;5052455;28;20136;-72
2024/01/26 03:53:17;;;;;;;39.00;12.20;;;;;;;;;;5053440;28;20071;-71
2024/01/26 03:55:43;;;;;;;41.25;10.18;;;;;;;;;;5053049;28;20131;-71
2024/01/26 03:58:10;;;;;;;42.17;10.95;;;;;;;;;;5071138;28;20148;-73
2024/01/26 04:00:36;;;;;;;31.15;10.50;;;;;;;;;;5071106;28;20098;-71
2024/01/26 04:03:03;;;;;;;42.92;11.15;;;;;;;;;;5052748;28;20048;-71
2024/01/26 04:05:29;;;;;;;25.02;10.02;;;;;;;;;;5071171;28;20489;-71
2024/01/26 04:07:56;;;;;;;34.55;9.60;;;;;;;;;;5070683;28;20059;-73
2024/01/26 04:10:22;;;;;;;34.08;8.82;;;;;;;;;;5070612;28;20056;-72
2024/01/26 04:12:49;;;;;;;36.60;10.45;;;;;;;;;;5062493;28;20095;-74
2024/01/26 04:15:15;;;;;;;34.22;8.57;;;;;;;;;;5063118;28;20052;-72
2024/01/26 04:17:42;;;;;;;36.28;8.82;;;;;;;;;;5053056;28;20060;-71
2024/01/26 04:20:08;;;;;;;34.13;8.95;;;;;;;;;;5046592;28;20048;-71
2024/01/26 04:22:35;;;;;;;30.52;11.10;;;;;;;;;;5070731;28;20155;-71
2024/01/26 04:25:01;;;;;;;34.63;9.68;;;;;;;;;;5070875;28;20044;-71
2024/01/26 04:27:28;;;;;;;46.10;9.85;;;;;;;;;;5070966;28;20735;-71
2024/01/26 04:29:54;;;;;;;34.33;8.88;;;;;;;;;;5060469;28;20107;-71
2024/01/26 04:32:21;;;;;;;32.45;8.77;;;;;;;;;;5049805;28;20103;-72
2024/01/26 04:34:47;;;;;;;31.83;9.00;;;;;;;;;;5068848;28;20147;-71
2024/01/26 04:37:13;;;;;;;28.50;9.20;;;;;;;;;;5070821;28;20570;-71
2024/01/26 04:39:42;;;;;;;31.13;9.55;;;;;;;;;;5070382;28;20131;-71
2024/01/26 04:42:08;;;;;;;30.27;9.27;;;;;;;;;;5070573;28;20095;-71
2024/01/26 04:44:35;;;;;;;28.60;9.65;;;;;;;;;;5070674;28;20055;-72
2024/01/26 04:47:02;;;;;;;27.13;9.27;;;;;;;;;;5057677;28;20053;-71
2024/01/26 04:49:29;;;;;;;34.78;9.82;;;;;;;;;;5066544;28;20685;-71
2024/01/26 04:51:56;;;;;;;30.23;8.68;;;;;;;;;;5069877;28;20053;-72
2024/01/26 04:54:22;;;;;;;32.50;10.30;;;;;;;;;;5070393;28;20474;-72
2024/01/26 04:56:48;;;;;;;32.28;9.45;;;;;;;;;;5070553;28;20080;-71
2024/01/26 04:59:15;;;;;;;34.50;9.65;;;;;;;;;;5053534;28;20142;-71
2024/01/26 05:01:41;;;;;;;30.63;8.90;;;;;;;;;;5070184;28;20052;-71
2024/01/26 05:04:07;;;;;;;35.55;9.75;;;;;;;;;;5070471;28;20052;-72
2024/01/26 05:06:34;;;;;;;27.00;9.32;;;;;;;;;;5070058;28;20131;-71
2024/01/26 05:09:00;;;;;;;38.53;8.98;;;;;;;;;;5069965;28;20058;-71
2024/01/26 05:11:27;;;;;;;26.45;8.10;;;;;;;;;;5070400;28;20055;-71
2024/01/26 05:13:53;;;;;;;35.15;10.68;;;;;;;;;;5069998;28;20040;-72
2024/01/26 05:16:20;;;;;;;33.53;8.85;;;;;;;;;;5070541;28;20106;-71
2024/01/26 05:18:46;;;;;;;34.30;11.00;;;;;;;;;;5070357;28;20055;-71
2024/01/26 05:21:13;;;;;;;42.33;10.98;;;;;;;;;;5070365;28;20091;-71
2024/01/26 05:23:40;;;;;;;32.55;10.02;;;;;;;;;;5068914;28;20041;-71
2024/01/26 05:26:07;;;;;;;33.35;9.68;;;;;;;;;;5070780;28;20041;-71
2024/01/26 05:28:33;;;;;;;31.45;10.75;;;;;;;;;;5070179;28;20048;-71
2024/01/26 05:30:59;;;;;;;32.78;10.18;;;;;;;;;;5070358;28;20139;-71
2024/01/26 05:33:26;;;;;;;29.80;9.05;;;;;;;;;;5069127;28;20080;-72
2024/01/26 05:35:53;;;;;;;30.38;8.63;;;;;;;;;;5069244;28;20546;-71
2024/01/26 05:38:19;;;;;;;26.17;10.40;;;;;;;;;;5069192;28;20143;-71
2024/01/26 05:40:46;;;;;;;39.30;9.68;;;;;;;;;;5069169;28;20106;-71
2024/01/26 05:43:13;;;;;;;31.02;9.75;;;;;;;;;;5068956;28;20732;-72
2024/01/26 05:45:39;;;;;;;36.03;10.15;;;;;;;;;;5069017;28;20071;-72
2024/01/26 05:48:06;;;;;;;36.47;11.90;;;;;;;;;;5068744;28;20051;-70
2024/01/26 05:50:32;;;;;;;38.45;11.35;;;;;;;;;;5067601;28;20413;-72
2024/01/26 05:52:59;;;;;;;41.65;12.40;;;;;;;;;;5067716;28;20491;-71
2024/01/26 05:55:25;;;;;;;36.50;9.68;;;;;;;;;;5053375;28;20591;-71
2024/01/26 05:57:52;;;;;;;41.92;10.82;;;;;;;;;;5068827;28;20055;-71
2024/01/26 06:00:18;;;;;;;31.48;9.45;;;;;;;;;;5068850;28;20131;-71
2024/01/26 06:02:45;;;;;;;31.85;11.00;;;;;;;;;;5068587;28;20053;-72
2024/01/26 06:05:12;;;;;;;37.35;10.25;;;;;;;;;;5051057;28;20045;-71
2024/01/26 06:07:38;;;;;;;33.00;12.30;;;;;;;;;;5068479;28;20118;-71
2024/01/26 06:10:06;;;;;;;42.30;11.93;;;;;;;;;;5068952;28;20041;-73
2024/01/26 06:12:32;;;;;;;43.50;12.27;;;;;;;;;;5068487;28;20055;-71
2024/01/26 06:14:59;;;;;;;43.70;12.93;;;;;;;;;;5068451;28;20056;-74
2024/01/26 06:17:25;;;;;;;38.45;11.05;;;;;;;;;;5068307;28;20056;-71
2024/01/26 06:19:52;;;;;;;34.30;11.77;;;;;;;;;;5068279;28;20139;-71
2024/01/26 06:22:18;;;;;;;38.10;12.52;;;;;;;;;;5068249;28;20048;-71
2024/01/26 06:24:45;;;;;;;41.25;12.77;;;;;;;;;;5067103;28;20052;-71
2024/01/26 06:27:11;;;;;;;40.30;11.57;;;;;;;;;;5068150;28;20045;-71
2024/01/26 06:29:40;;;;;;;37.80;10.65;;;;;;;;;;5068244;28;20055;-70
2024/01/26 06:32:06;;;;;;;34.83;12.13;;;;;;;;;;5068077;28;20053;-71
2024/01/26 06:34:33;;;;;;;30.60;10.55;;;;;;;;;;5068134;28;20562;-71
2024/01/26 06:37:00;;;;;;;40.97;10.10;;;;;;;;;;5067909;28;20105;-71
2024/01/26 06:39:26;;;;;;;36.33;12.18;;;;;;;;;;5046876;28;20124;-71
2024/01/26 06:41:53;;;;;;;36.42;11.25;;;;;;;;;;5061949;28;20044;-71
2024/01/26 06:44:19;;;;;;;32.13;10.85;;;;;;;;;;5068266;28;20066;-71
2024/01/26 06:46:46;;;;;;;40.03;12.23;;;;;;;;;;5067742;28;20047;-71
2024/01/26 06:49:12;;;;;;;44.55;10.98;;;;;;;;;;5050468;28;20090;-71
2024/01/26 06:51:39;;;;;;;47.65;13.68;;;;;;;;;;5068748;28;20152;-71
2024/01/26 06:54:05;;;;;;;49.22;14.82;;;;;;;;;;5051419;28;20052;-71
2024/01/26 06:56:32;;;;;;;37.33;11.90;;;;;;;;;;5067542;28;20041;-71
2024/01/26 06:58:58;;;;;;;43.08;11.82;;;;;;;;;;5068041;28;20686;-72
2024/01/26 07:01:25;;;;;;;35.97;10.55;;;;;;;;;;5067961;28;20049;-72
2024/01/26 07:03:51;;;;;;;35.55;12.65;;;;;;;;;;5067825;28;20048;-71
2024/01/26 07:06:18;;;;;;;33.97;12.90;;;;;;;;;;5046609;28;20076;-71
2024/01/26 07:08:44;;;;;;;40.95;14.15;;;;;;;;;;5066238;28;20435;-72
2024/01/26 07:11:11;;;;;;;36.38;13.60;;;;;;;;;;5069334;28;20112;-71
2024/01/26 07:13:37;;;;;;;38.38;10.45;;;;;;;;;;5072253;28;20519;-71
2024/01/26 07:16:04;;;;;;;45.08;11.25;;;;;;;;;;5072070;28;20109;-71
2024/01/26 07:18:32;;;;;;;29.23;11.63;;;;;;;;;;5064478;28;20052;-71
2024/01/26 07:21:04;;;;;;;38.05;10.98;;;;;;;;;;5062885;28;20448;-71
2024/01/26 07:23:30;;;;;;;36.58;10.40;;;;;;;;;;5071658;28;20063;-72
2024/01/26 07:25:57;;;;;;;37.85;12.25;;;;;;;;;;5070488;28;20047;-71
2024/01/26 07:28:23;;;;;;;30.98;10.75;;;;;;;;;;5071704;28;20542;-71
2024/01/26 07:30:50;;;;;;;42.70;12.32;;;;;;;;;;5072189;28;20061;-72
2024/01/26 07:33:16;;;;;;;43.42;11.73;;;;;;;;;;5050834;28;20057;-72
2024/01/26 07:35:43;;;;;;;33.28;10.82;;;;;;;;;;5059083;28;20132;-71
2024/01/26 07:38:09;;;;;;;39.50;10.40;;;;;;;;;;5071638;28;20133;-72
2024/01/26 07:40:36;;;;;;;30.00;10.20;;;;;;;;;;5071214;28;20052;-71
2024/01/26 07:43:02;;;;;;;35.38;10.85;;;;;;;;;;5071498;28;20143;-72
2024/01/26 07:45:29;;;;;;;49.92;13.85;;;;;;;;;;5071476;28;20131;-71
2024/01/26 07:47:55;;;;;;;32.05;10.00;;;;;;;;;;5071222;28;20154;-73
2024/01/26 07:50:22;;;;;;;30.63;10.65;;;;;;;;;;5071229;28;20052;-71
2024/01/26 07:52:48;;;;;;;33.28;9.00;;;;;;;;;;5071024;28;20076;-71
2024/01/26 07:55:14;;;;;;;39.20;10.40;;;;;;;;;;5053445;28;20083;-72
2024/01/26 07:57:41;;;;;;;30.25;11.10;;;;;;;;;;5052429;28;20055;-73
2024/01/26 08:00:08;;;;;;;37.05;10.13;;;;;;;;;;5070684;28;20041;-76
2024/01/26 08:02:35;;;;;;;34.67;10.23;;;;;;;;;;5071334;28;20052;-73
2024/01/26 08:05:02;;;;;;;28.80;9.98;;;;;;;;;;5054156;28;20135;-70
2024/01/26 08:07:28;;;;;;;34.67;9.15;;;;;;;;;;5053021;28;20059;-68
2024/01/26 08:09:55;;;;;;;31.90;10.93;;;;;;;;;;5070225;28;20105;-72
2024/01/26 08:12:21;;;;;;;34.45;10.05;;;;;;;;;;5061930;28;20053;-74
2024/01/26 08:15:05;;;;;;;27.35;9.32;;;;;;;;;;5058804;28;20047;-76
2024/01/26 08:17:32;;;;;;;25.05;9.77;;;;;;;;;;5053121;28;20515;-75
2024/01/26 08:20:01;;;;;;;23.95;8.18;;;;;;;;;;5066030;28;20132;-76
2024/01/26 08:22:27;;;;;;;33.25;11.10;;;;;;;;;;5065313;28;20098;-72
2024/01/26 08:24:54;;;;;;;36.60;9.75;;;;;;;;;;5070541;28;20048;-75
2024/01/26 08:27:20;;;;;;;26.52;9.05;;;;;;;;;;5067604;28;20106;-75
2024/01/26 08:29:47;;;;;;;29.75;8.70;;;;;;;;;;5066285;28;20056;-78
2024/01/26 08:32:14;;;;;;;39.13;9.30;;;;;;;;;;5063378;28;20045;-79
2024/01/26 08:34:40;;;;;;;37.55;9.05;;;;;;;;;;5070163;28;20151;-76
2024/01/26 08:37:07;;;;;;;58.05;11.93;;;;;;;;;;5069668;28;20062;-76
2024/01/26 08:39:36;;;;;;;36.88;7.45;;;;;;;;;;5065670;28;20045;-78
2024/01/26 08:42:03;;;;;;;28.58;10.00;;;;;;;;;;5061122;28;20056;-74
2024/01/26 08:44:32;;;;;;;31.00;9.20;;;;;;;;;;5061302;28;20057;-77
2024/01/26 08:46:59;;;;;;;28.27;8.25;;;;;;;;;;5054196;28;20080;-79
2024/01/26 08:49:25;;;;;;;29.23;7.70;;;;;;;;;;5066430;28;20060;-72
2024/01/26 08:51:52;;;;;;;35.58;7.82;;;;;;;;;;5066464;28;20055;-75
2024/01/26 08:54:18;;;;;;;30.00;9.82;;;;;;;;;;5067284;28;20501;-75
2024/01/26 08:56:45;;;;;;;26.92;8.13;;;;;;;;;;5050251;28;20404;-77
2024/01/26 08:59:11;;;;;;;34.47;9.65;;;;;;;;;;5068797;28;20059;-77
2024/01/26 09:01:38;;;;;;;36.38;8.77;;;;;;;;;;5057253;28;20111;-74
2024/01/26 09:04:05;;;;;;;22.83;7.57;;;;;;;;;;5052268;28;20120;-78
2024/01/26 09:06:32;;;;;;;33.60;8.48;;;;;;;;;;5064028;28;20067;-78
2024/01/26 09:08:58;;;;;;;25.20;9.43;;;;;;;;;;5065796;28;20045;-75
2024/01/26 09:11:25;;;;;;;27.45;7.65;;;;;;;;;;5051852;28;20049;-76
2024/01/26 09:13:51;;;;;;;36.95;9.18;;;;;;;;;;5069188;28;20055;-80
2024/01/26 09:16:19;;;;;;;32.03;9.35;;;;;;;;;;5044953;28;20041;-78
2024/01/26 09:18:45;;;;;;;28.70;7.97;;;;;;;;;;5063703;28;20086;-76
2024/01/26 09:21:13;;;;;;;23.98;8.32;;;;;;;;;;5051920;28;20052;-77
2024/01/26 09:23:40;;;;;;;32.45;9.10;;;;;;;;;;5062158;28;20052;-74
2024/01/26 09:26:06;;;;;;;24.33;8.77;;;;;;;;;;5067648;28;20093;-76
2024/01/26 09:28:33;;;;;;;32.88;7.95;;;;;;;;;;5068404;28;20036;-79
2024/01/26 09:30:59;;;;;;;24.65;7.78;;;;;;;;;;5056362;28;20652;-73
2024/01/26 09:37:12;;;;;;;35.72;8.80;;;;;;;;;;5067036;28;20805;-76
2024/01/26 09:39:39;;;;;;;23.55;8.15;;;;;;;;;;5068484;28;20044;-72
2024/01/26 09:42:05;;;;;;;20.80;9.40;;;;;;;;;;5069076;28;20083;-70
2024/01/26 09:44:32;;;;;;;24.25;9.30;;;;;;;;;;5051452;28;20136;-72
2024/01/26 09:47:00;;;;;;;25.08;8.32;;;;;;;;;;5051247;28;20694;-73
2024/01/26 09:49:27;;;;;;;21.85;7.93;;;;;;;;;;5068901;28;20052;-70
2024/01/26 09:51:54;;;;;;;22.25;8.38;;;;;;;;;;5068716;28;20109;-71
2024/01/26 09:54:20;;;;;;;25.60;8.68;;;;;;;;;;5069079;28;20554;-72
2024/01/26 09:56:47;;;;;;;33.25;8.75;;;;;;;;;;5069006;28;20503;-72
2024/01/26 09:59:14;;;;;;;22.45;9.27;;;;;;;;;;5067831;28;20127;-71
2024/01/26 10:01:41;;;;;;;27.10;9.50;;;;;;;;;;5053694;28;20143;-73
2024/01/26 10:04:08;;;;;;;28.83;8.75;;;;;;;;;;5068914;28;20040;-70
2024/01/26 10:06:35;;;;;;;32.42;8.30;;;;;;;;;;5068594;28;20152;-73
2024/01/26 10:09:03;;;;;;;19.55;7.13;;;;;;;;;;5050849;28;20040;-71
2024/01/26 10:11:31;;;;;;;26.80;9.70;;;;;;;;;;5068899;28;20044;-71
2024/01/26 10:13:57;;;;;;;22.50;8.48;;;;;;;;;;5068648;28;20070;-70
2024/01/26 10:16:24;;;;;;;24.15;8.38;;;;;;;;;;5068555;28;20045;-70
2024/01/26 10:18:50;;;;;;;26.40;9.23;;;;;;;;;;5068365;28;20078;-71
2024/01/26 10:21:20;;;;;;;23.08;8.32;;;;;;;;;;5068122;28;20055;-71
2024/01/26 10:23:47;;;;;;;28.30;8.23;;;;;;;;;;5068155;28;20508;-73
2024/01/26 10:26:14;;;;;;;20.88;6.95;;;;;;;;;;5068494;28;20051;-73
2024/01/26 10:28:41;;;;;;;21.27;7.10;;;;;;;;;;5067201;28;20215;-71
2024/01/26 10:31:07;;;;;;;20.25;7.95;;;;;;;;;;5063237;28;20048;-73
2024/01/26 10:33:36;;;;;;;25.20;6.63;;;;;;;;;;5067398;28;20059;-72
2024/01/26 10:36:05;;;;;;;26.63;8.20;;;;;;;;;;5068339;28;20160;-72
2024/01/26 10:38:31;;;;;;;16.58;6.65;;;;;;;;;;5066807;28;20059;-73
2024/01/26 10:41:01;;;;;;;22.35;7.90;;;;;;;;;;5064659;28;20048;-75
2024/01/26 10:43:28;;;;;;;19.48;8.55;;;;;;;;;;5068633;28;20052;-74
2024/01/26 10:45:56;;;;;;;30.25;8.52;;;;;;;;;;5066140;28;20477;-72
2024/01/26 10:48:23;;;;;;;17.58;6.55;;;;;;;;;;5065992;28;20459;-75
2024/01/26 10:50:50;;;;;;;15.18;7.20;;;;;;;;;;5048107;28;20101;-72
2024/01/26 10:53:17;;;;;;;24.35;7.43;;;;;;;;;;5050065;28;20504;-77
2024/01/26 10:55:44;;;;;;;22.08;6.90;;;;;;;;;;5063597;28;20048;-74
2024/01/26 10:58:10;;;;;;;17.00;5.95;;;;;;;;;;5048330;28;20061;-75
2024/01/26 11:00:37;;;;;;;15.90;6.88;;;;;;;;;;5045911;28;20064;-76
2024/01/26 11:03:03;;;;;;;18.02;4.55;;;;;;;;;;5048265;28;20052;-74
2024/01/26 11:05:30;;;;;;;13.23;5.95;;;;;;;;;;5054005;28;20048;-79
2024/01/26 11:08:00;;;;;;;14.75;6.60;;;;;;;;;;5068048;28;20056;-74
2024/01/26 11:10:28;;;;;;;13.90;7.07;;;;;;;;;;5068222;28;20049;-74
2024/01/26 11:12:59;;;;;;;12.45;5.40;;;;;;;;;;5050066;28;20044;-74
2024/01/26 11:15:25;;;;;;;13.07;5.32;;;;;;;;;;5050106;28;20056;-73
2024/01/26 11:17:53;;;;;;;18.95;6.30;;;;;;;;;;5067543;28;20516;-75
2024/01/26 11:20:25;;;;;;;13.38;5.60;;;;;;;;;;5066146;28;20101;-72
2024/01/26 11:22:59;;;;;;;18.30;5.65;;;;;;;;;;5049877;28;20053;-70
2024/01/26 11:25:26;;;;;;;14.25;5.25;;;;;;;;;;5049040;28;20052;-75
2024/01/26 11:27:59;;;;;;;9.52;5.03;;;;;;;;;;5066457;28;20386;-74
2024/01/26 11:30:25;;;;;;;15.65;5.43;;;;;;;;;;5066932;28;20043;-74
2024/01/26 11:32:52;;;;;;;16.02;6.22;;;;;;;;;;5049945;28;20044;-73
2024/01/26 11:35:21;;;;;;;16.77;6.22;;;;;;;;;;5049042;28;20056;-76
2024/01/26 11:37:52;;;;;;;10.20;5.28;;;;;;;;;;5068575;28;20572;-78
2024/01/26 11:40:20;;;;;;;10.18;4.82;;;;;;;;;;5068396;28;20130;-74
2024/01/26 11:42:50;;;;;;;12.75;5.35;;;;;;;;;;5067727;28;20094;-74
2024/01/26 11:45:36;;;;;;;11.98;4.90;;;;;;;;;;5066104;28;20059;-73
2024/01/26 11:48:07;;;;;;;15.70;4.72;;;;;;;;;;5067642;28;20045;-73
2024/01/26 11:50:34;;;;;;;;;;;;;;;;;;5068152;28;20550;-68
2024/01/26 11:53:01;;;;;;;10.45;5.50;;;;;;;;;;5067867;28;19921;-75
2024/01/26 11:55:28;;;;;;;13.50;5.72;;;;;;;;;;5066862;28;20135;-71
2024/01/26 11:57:56;;;;;;;12.43;5.93;;;;;;;;;;5070653;28;20419;-75
2024/01/26 12:00:23;;;;;;;10.20;4.93;;;;;;;;;;5070917;28;20054;-68
2024/01/26 12:02:51;;;;;;;11.18;5.47;;;;;;;;;;5070532;28;20120;-73
2024/01/26 12:05:19;;;;;;;11.27;4.97;;;;;;;;;;5071013;28;20044;-74
2024/01/26 12:07:46;;;;;;;10.45;5.25;;;;;;;;;;5071247;28;20102;-73
2024/01/26 12:10:14;;;;;;;13.13;6.35;;;;;;;;;;5070968;28;20080;-72
2024/01/26 12:12:42;;;;;;;11.23;5.38;;;;;;;;;;5070891;28;20409;-69
2024/01/26 12:15:09;;;;;;;13.70;6.40;;;;;;;;;;5069468;28;20129;-70
2024/01/26 12:17:36;;;;;;;14.85;6.18;;;;;;;;;;5070872;28;20185;-72
2024/01/26 12:20:08;;;;;;;9.25;5.95;;;;;;;;;;5069309;28;20048;-70
2024/01/26 12:22:34;;;;;;;11.43;4.75;;;;;;;;;;5071031;28;20049;-72
2024/01/26 12:25:03;;;;;;;12.98;6.28;;;;;;;;;;5071089;28;20044;-71
2024/01/26 12:27:29;;;;;;;12.65;5.20;;;;;;;;;;5070752;28;20045;-70
2024/01/26 12:29:55;;;;;;;11.27;4.55;;;;;;;;;;5070513;28;20110;-71
2024/01/26 12:32:22;;;;;;;12.52;5.80;;;;;;;;;;5068303;28;20036;-71
2024/01/26 12:34:48;;;;;;;15.10;5.28;;;;;;;;;;5069316;28;20148;-73
2024/01/26 12:37:15;;;;;;;13.77;5.78;;;;;;;;;;5070598;28;20051;-74
2024/01/26 12:39:42;;;;;;;11.25;5.65;;;;;;;;;;5069964;28;20048;-74
2024/01/26 12:42:08;;;;;;;14.35;6.03;;;;;;;;;;5070083;28;20573;-71
2024/01/26 12:44:38;;;;;;;16.27;6.43;;;;;;;;;;5070469;28;20064;-70
2024/01/26 12:47:04;;;;;;;19.17;5.63;;;;;;;;;;5070341;28;20135;-73
2024/01/26 12:49:32;;;;;;;13.88;4.85;;;;;;;;;;5069991;28;20084;-73
2024/01/26 12:51:58;;;;;;;16.30;6.13;;;;;;;;;;5069779;28;20060;-72
2024/01/26 12:54:25;;;;;;;9.05;4.50;;;;;;;;;;5069301;28;20060;-74
2024/01/26 12:56:51;;;;;;;12.60;4.82;;;;;;;;;;5070334;28;20052;-74
2024/01/26 12:59:18;;;;;;;10.65;5.20;;;;;;;;;;5070232;28;20045;-72
2024/01/26 13:01:45;;;;;;;11.13;5.47;;;;;;;;;;5070213;28;20045;-74
2024/01/26 13:04:11;;;;;;;10.80;5.18;;;;;;;;;;5068163;28;20113;-73
2024/01/26 13:06:38;;;;;;;11.23;5.20;;;;;;;;;;5068897;28;20048;-73
2024/01/26 13:09:06;;;;;;;7.70;4.28;;;;;;;;;;5066360;28;20045;-72
2024/01/26 13:11:33;;;;;;;11.95;5.00;;;;;;;;;;5070017;28;20055;-71
2024/01/26 13:14:01;;;;;;;8.15;4.97;;;;;;;;;;5069679;28;20064;-72
2024/01/26 13:16:27;;;;;;;11.02;4.78;;;;;;;;;;5069906;28;20487;-72
2024/01/26 13:18:54;;;;;;;8.43;4.40;;;;;;;;;;5069376;28;20114;-72
2024/01/26 13:21:21;;;;;;;8.10;4.65;;;;;;;;;;5068347;28;20041;-71
2024/01/26 13:23:48;;;;;;;6.88;4.35;;;;;;;;;;5069464;28;20075;-72
2024/01/26 13:26:15;;;;;;;6.22;3.70;;;;;;;;;;5051577;28;20050;-71
2024/01/26 13:28:42;;;;;;;6.85;3.63;;;;;;;;;;5069386;28;20045;-71
2024/01/26 13:31:08;;;;;;;7.30;4.63;;;;;;;;;;5069179;28;20058;-71
2024/01/26 13:33:35;;;;;;;7.22;3.42;;;;;;;;;;5068023;28;20057;-71
2024/01/26 13:36:02;;;;;;;10.80;4.13;;;;;;;;;;5069296;28;20120;-73
2024/01/26 13:38:31;;;;;;;9.45;4.40;;;;;;;;;;5069136;28;20047;-70
2024/01/26 13:40:57;;;;;;;8.13;4.10;;;;;;;;;;5069247;28;20045;-70
2024/01/26 13:43:26;;;;;;;6.63;3.45;;;;;;;;;;5069308;28;20079;-71
2024/01/26 13:45:54;;;;;;;7.63;3.70;;;;;;;;;;5069290;28;20048;-70
2024/01/26 13:48:21;;;;;;;5.20;2.85;;;;;;;;;;5069062;28;20447;-69
2024/01/26 13:50:52;;;;;;;5.28;3.42;;;;;;;;;;5068645;28;20114;-69
2024/01/26 13:53:21;;;;;;;5.75;3.15;;;;;;;;;;5068635;28;20059;-72
2024/01/26 13:55:48;;;;;;;6.40;2.90;;;;;;;;;;5068804;28;20060;-70
2024/01/26 13:58:15;;;;;;;5.53;3.22;;;;;;;;;;5068874;28;20598;-71
2024/01/26 14:00:42;;;;;;;6.07;3.38;;;;;;;;;;5068905;28;20400;-71
2024/01/26 14:03:09;;;;;;;6.47;3.78;;;;;;;;;;5068149;28;20557;-69
2024/01/26 14:05:37;;;;;;;5.75;3.08;;;;;;;;;;5066630;28;20050;-70
2024/01/26 14:08:04;;;;;;;6.25;3.40;;;;;;;;;;5068581;28;20454;-69
2024/01/26 14:10:31;;;;;;;7.72;3.05;;;;;;;;;;5068396;28;20485;-68
2024/01/26 14:12:57;;;;;;;5.88;2.88;;;;;;;;;;5067850;28;20067;-70
2024/01/26 14:15:24;;;;;;;5.88;3.35;;;;;;;;;;5064825;28;20531;-72
2024/01/26 14:17:51;;;;;;;5.57;3.03;;;;;;;;;;5049710;28;20048;-69
2024/01/26 14:20:21;;;;;;;5.78;3.00;;;;;;;;;;5048870;28;20978;-72
2024/01/26 14:22:49;;;;;;;5.72;3.00;;;;;;;;;;5060838;28;20047;-69
2024/01/26 14:25:20;;;;;;;8.43;3.53;;;;;;;;;;5066837;28;20193;-70
2024/01/26 14:27:47;;;;;;;4.35;2.80;;;;;;;;;;5068262;28;20098;-75